Center Groton, Connecticut
Current Conditions -  °F | °C
As of 7:56 AM on Saturday 20 Dec 2014 (Local Time) from KGON Reporting Station
Haze Haze  
Wind Chill: 19°   Ceiling: 3300
Heat Index: 28°   Visibility: 6mi
Dew Point: 21°   Wind: 9mph
Humidity: 75%   Direction: 10°N
Pressure: 30.26"   Gusts: NA
Location:  41.3595°N, 72.0439°W
Report Text: KGON 201256Z 01008KT 6SM HZ OVC033 M02/M06 A3026 RMK AO2 SLP248 T10221061
Loading
Personal Weather Stations






























Interactive Weather Map New forecast layout! Learn more

10-Day Weather Forecast

Advertisements
Track Severe Weather on mobile